McKean, Pennsylvania
Current Conditions -  °F | °C
As of 9:51 PM on Friday 21 Nov 2014 (Local Time) from KERI Reporting Station
Clear Clear  
Wind Chill:   Ceiling: Unl
Heat Index: 19°   Visibility: 10mi
Dew Point:   Wind: 8mph
Humidity: 62%   Direction: 180°S
Pressure: 30.43"   Gusts: NA
Location:  42°N, 80.14°W
Report Text: KERI 220251Z 18007KT 10SM CLR M07/M13 A3043 RMK AO2 SLP315 T10721133 56016
Loading
Personal Weather Stations






























Interactive Weather Map New forecast layout! Learn more

10-Day Weather Forecast

Advertisements
Track Severe Weather on mobile